Weather at KFOR Headquarters Heliport

Public forecast

Using degrees Celsius for public forecast. Weather courtesy of forecast.io.

Closest aviation weather report (METAR) to KFOR Headquarters Heliport

Closest report is Priština Adem Jashari International Airport, 7.2 nm (13.4 km) SW.

2024/05/24 01:30 (retrieved 14 minutes ago)

BKPR 240130Z 33003KT 300V360 CAVOK 10/10 Q1018 NOSIG

Closest aviation forecast (TAF) to KFOR Headquarters Heliport

Forecast is more than 6 hours old.

Closest forecast is Kukës International Airport, 49.6 nm (91.9 km) SW.

2024/05/23 18:00 Ammendment (retrieved 8 hours ago)

TAF AMD LAKU 231900Z 2318/2418 CNL